Svitzer Stanlow — MLNF7 — position and weather

sailwx.info

Track history (hours):
 
Tides and Currents Weather Stations Pressure Air Temp Water Temp Dewpoint Dewpoint Depression Visibility Wind Speed Wind Dir Waves Ship Positions

Svitzer Stanlow

Last reported at 2017-Mar-27 12:29 UTC. Time now 2017-Mar-27 12:44 UTC.
Position N 53°24' W 002°60'.

Length 39 m.

Type: Tug. MMSI: 235010620.

Date/timePositionNaut miles runAvg speedWind from/ knotsBaromVisibWave heightAir tempDewpointWater temp
2017-Mar-27 12:29N 53°24' W 002°60'2 1.9
2017-Mar-27 11:34N 53°26' W 003°01'6 5.5
2017-Mar-27 10:33N 53°31' W 003°06'8 8.5
2017-Mar-27 09:33N 53°23' W 002°60'1 1.3
2017-Mar-27 08:32N 53°24' W 002°60'0 0.0
2017-Mar-27 07:32N 53°24' W 002°60'0 0.0
2017-Mar-27 06:32N 53°24' W 002°60'0 0.0
2017-Mar-27 05:29N 53°24' W 002°60'0 0.0
2017-Mar-27 04:32N 53°24' W 002°60'0 0.0
2017-Mar-27 03:32N 53°24' W 002°60'0 0.0
2017-Mar-27 02:32N 53°24' W 002°60'0 0.0
2017-Mar-27 01:32N 53°24' W 002°60'0 0.0
2017-Mar-27 00:32N 53°24' W 002°60'0 0.0
2017-Mar-26 23:29N 53°24' W 002°60'0 0.0
2017-Mar-26 22:32N 53°24' W 002°60'0 0.0
2017-Mar-26 21:32N 53°24' W 002°60'0 0.0
2017-Mar-26 20:29N 53°24' W 002°60'0 0.0
2017-Mar-26 19:32N 53°24' W 002°60'0 0.0
2017-Mar-26 18:32N 53°24' W 002°60'0 0.0
2017-Mar-26 17:28N 53°24' W 002°60'0 0.0
2017-Mar-26 16:31N 53°24' W 002°60'0 0.0
2017-Mar-26 15:25N 53°24' W 002°60'0 0.0
2017-Mar-26 14:31N 53°24' W 002°60'0 0.0
2017-Mar-26 13:31N 53°24' W 002°60'0 0.0
2017-Mar-26 12:31N 53°24' W 002°60'1 1.4
2017-Mar-26 11:30N 53°23' W 003°00'2 1.6
2017-Mar-26 10:33N 53°24' W 003°01'6 6.3
2017-Mar-26 09:33N 53°30' W 003°06'8 7.8
2017-Mar-26 08:34N 53°31' W 003°18'2 1.7
2017-Mar-26 07:33N 53°31' W 003°16'9 9.1
2017-Mar-26 06:33N 53°27' W 003°02'5 4.3
2017-Mar-26 05:29N 53°23' W 002°60'0 0.2
2017-Mar-26 04:32N 53°23' W 003°00'0 0.0
2017-Mar-26 03:32N 53°23' W 003°00'0 0.0
2017-Mar-26 02:29N 53°23' W 003°00'0 0.0
2017-Mar-26 01:29N 53°23' W 003°00'0 0.0
2017-Mar-26 00:32N 53°23' W 003°00'0 0.0
2017-Mar-25 23:32N 53°23' W 003°00'0 0.0
2017-Mar-25 22:23N 53°23' W 003°00'0 0.0
2017-Mar-25 21:32N 53°23' W 003°00'0 0.1
2017-Mar-25 20:34N 53°23' W 002°60'0 0.1
2017-Mar-25 19:33N 53°23' W 002°60'0 0.0
2017-Mar-25 18:33N 53°23' W 002°60'0 0.0
2017-Mar-25 17:33N 53°23' W 002°60'0 0.0
2017-Mar-25 16:33N 53°23' W 002°60'0 0.0
2017-Mar-25 15:33N 53°23' W 002°60'0 0.0
2017-Mar-25 14:33N 53°23' W 002°60'0 0.0
2017-Mar-25 13:24N 53°23' W 002°60'0 0.0
2017-Mar-25 12:33N 53°23' W 002°60'0 0.0
2017-Mar-25 11:33N 53°23' W 002°60'0 0.0
2017-Mar-25 10:30N 53°23' W 002°60'0 0.2
2017-Mar-25 09:33N 53°23' W 002°60'1 1.4
2017-Mar-25 08:27N 53°24' W 002°60'0 0.0
2017-Mar-25 07:33N 53°24' W 002°60'0 0.0
2017-Mar-25 06:33N 53°24' W 002°60'0 0.0
2017-Mar-25 05:33N 53°24' W 002°60'0 0.0
2017-Mar-25 04:33N 53°24' W 002°60'0 0.0
2017-Mar-25 03:33N 53°24' W 002°60'0 0.0
2017-Mar-25 02:33N 53°24' W 002°60'0 0.0
2017-Mar-25 01:33N 53°24' W 002°60'0 0.0
2017-Mar-25 00:30N 53°24' W 002°60'0 0.0
2017-Mar-24 23:33N 53°24' W 002°60'0 0.0
2017-Mar-24 22:33N 53°24' W 002°60'1 1.4
2017-Mar-24 21:32N 53°23' W 003°00'2 2.1
2017-Mar-24 20:33N 53°25' W 003°01'8 7.9
2017-Mar-24 19:33N 53°32' W 003°08'2 2.0
2017-Mar-24 18:33N 53°32' W 003°11'9 9.2
2017-Mar-24 17:33N 53°25' W 003°01'2 1.9
2017-Mar-24 16:28N 53°23' W 003°00'0 0.0
2017-Mar-24 15:31N 53°23' W 003°00'0 0.0
2017-Mar-24 14:28N 53°23' W 003°00'0 0.0
2017-Mar-24 13:31N 53°23' W 003°00'0 0.0
2017-Mar-24 12:31N 53°23' W 003°00'0 0.0
2017-Mar-24 11:31N 53°23' W 003°00'0 0.0
2017-Mar-24 10:31N 53°23' W 003°00'0 0.0
2017-Mar-24 09:31N 53°23' W 003°00'0 0.0
2017-Mar-24 08:28N 53°23' W 003°00'0 0.0
2017-Mar-24 07:31N 53°23' W 003°00'0 0.0
2017-Mar-24 06:33N 53°23' W 003°00'0 0.0
2017-Mar-24 05:33N 53°23' W 003°00'0 0.0
2017-Mar-24 04:33N 53°23' W 003°00'0 0.0
2017-Mar-24 03:33N 53°23' W 003°00'0 0.0
2017-Mar-24 02:33N 53°23' W 003°00'0 0.0
2017-Mar-24 01:33N 53°23' W 003°00'0 0.0
2017-Mar-24 00:33N 53°23' W 003°00'0 0.0
2017-Mar-23 23:33N 53°23' W 003°00'0 0.0
2017-Mar-23 22:33N 53°23' W 003°00'0 0.0
2017-Mar-23 21:33N 53°23' W 003°00'0 0.2
2017-Mar-23 20:32N 53°23' W 002°60'2 1.8
2017-Mar-23 19:33N 53°24' W 003°01'0 0.3
2017-Mar-23 18:32N 53°24' W 002°60'3 2.9
2017-Mar-23 17:31N 53°27' W 003°01'2 1.8
2017-Mar-23 16:33N 53°25' W 003°00'0 0.0
2017-Mar-23 15:30N 53°25' W 003°00'0 0.0
2017-Mar-23 14:33N 53°25' W 003°00'0 0.0
2017-Mar-23 13:33N 53°25' W 003°00'0 0.0
2017-Mar-23 12:33N 53°25' W 003°00'0 0.0
2017-Mar-23 11:33N 53°25' W 003°00'0 0.0
2017-Mar-23 10:30N 53°25' W 003°00'0 0.0
2017-Mar-23 09:33N 53°25' W 003°00'0 0.2
2017-Mar-23 08:33N 53°26' W 003°00'1 1.4
2017-Mar-23 07:33N 53°27' W 003°01'0 0.0
2017-Mar-23 06:33N 53°27' W 003°01'0 0.2
2017-Mar-23 05:33N 53°27' W 003°01'1 0.7
2017-Mar-23 04:32N 53°27' W 003°00'1 0.5
2017-Mar-23 03:32N 53°26' W 003°00'2 1.5
2017-Mar-23 02:32N 53°27' W 003°01'1 0.7
2017-Mar-23 01:30N 53°27' W 003°01'1 1.4
2017-Mar-23 00:28N 53°25' W 003°00'0 0.0
2017-Mar-22 23:28N 53°25' W 003°00'0 0.0
2017-Mar-22 22:31N 53°25' W 003°00'0 0.0
2017-Mar-22 21:31N 53°25' W 003°00'0 0.0
2017-Mar-22 20:31N 53°25' W 003°00'0 0.0
2017-Mar-22 19:31N 53°25' W 003°00'0 0.0
2017-Mar-22 18:31N 53°25' W 003°00'0 0.0
2017-Mar-22 17:31N 53°25' W 003°00'0 0.0
2017-Mar-22 16:28N 53°25' W 003°00'0 0.0
2017-Mar-22 15:28N 53°25' W 003°00'0 0.0
2017-Mar-22 14:25N 53°25' W 003°00'0 0.0
2017-Mar-22 13:31N 53°25' W 003°00'0 0.0
2017-Mar-22 12:28N 53°25' W 003°00'0 0.0
2017-Mar-22 11:31N 53°25' W 003°00'0 0.0
2017-Mar-22 10:31N 53°25' W 003°00'0 0.0
2017-Mar-22 09:25N 53°25' W 003°00'0 0.0
2017-Mar-22 08:28N 53°25' W 003°00'0 0.0
2017-Mar-22 07:28N 53°25' W 003°00'0 0.0
2017-Mar-22 06:31N 53°25' W 003°00'0 0.0
2017-Mar-22 05:31N 53°25' W 003°00'0 0.0
2017-Mar-22 04:34N 53°25' W 003°00'0 0.0
2017-Mar-22 03:34N 53°25' W 003°00'0 0.0
2017-Mar-22 02:33N 53°25' W 003°00'0 0.0
2017-Mar-22 01:33N 53°25' W 003°00'0 0.0
2017-Mar-22 00:33N 53°25' W 003°00'0 0.0
2017-Mar-21 23:33N 53°25' W 003°00'0 0.0
2017-Mar-21 22:33N 53°25' W 003°00'0 0.0
2017-Mar-21 21:33N 53°25' W 003°00'0 0.0
2017-Mar-21 20:33N 53°25' W 003°00'0 0.0
2017-Mar-21 19:33N 53°25' W 003°00'0 0.0
2017-Mar-21 18:33N 53°25' W 003°00'2 1.9
2017-Mar-21 17:32N 53°27' W 003°01'0 0.3
2017-Mar-21 16:31N 53°27' W 003°02'0 0.3
2017-Mar-21 15:33N 53°27' W 003°01'1 0.7
2017-Mar-21 14:32N 53°27' W 003°01'0 0.2
2017-Mar-21 13:33N 53°27' W 003°01'4 4.1
2017-Mar-21 12:33N 53°23' W 002°60'0 0.2
2017-Mar-21 11:31N 53°23' W 003°00'0 0.0
2017-Mar-21 10:31N 53°23' W 003°00'0 0.0
2017-Mar-21 09:31N 53°23' W 003°00'0 0.0
2017-Mar-21 08:31N 53°23' W 003°00'0 0.0
2017-Mar-21 07:31N 53°23' W 003°00'0 0.0
2017-Mar-21 06:34N 53°23' W 003°00'0 0.0
2017-Mar-21 05:33N 53°23' W 003°00'0 0.0
2017-Mar-21 04:33N 53°23' W 003°00'0 0.0
2017-Mar-21 03:33N 53°23' W 003°00'0 0.0
2017-Mar-21 02:33N 53°23' W 003°00'0 0.0
2017-Mar-21 01:30N 53°23' W 003°00'0 0.0
2017-Mar-21 00:33N 53°23' W 003°00'0 0.0
2017-Mar-20 23:24N 53°23' W 003°00'0 0.0
2017-Mar-20 22:33N 53°23' W 003°00'0 0.0
2017-Mar-20 21:33N 53°23' W 003°00'0 0.0
2017-Mar-20 20:33N 53°23' W 003°00'0 0.0
2017-Mar-20 19:33N 53°23' W 003°00'0 0.0
2017-Mar-20 18:18N 53°23' W 003°00'0 0.0
2017-Mar-20 17:30N 53°23' W 003°00'0 0.0
2017-Mar-20 16:30N 53°23' W 003°00'0 0.0
2017-Mar-20 15:33N 53°23' W 003°00'0 0.0
2017-Mar-20 14:33N 53°23' W 003°00'0 0.0
2017-Mar-20 13:33N 53°23' W 003°00'0 0.0
2017-Mar-20 12:33N 53°23' W 003°00'0 0.0
2017-Mar-20 11:33N 53°23' W 003°00'0 0.0
2017-Mar-20 10:27N 53°23' W 003°00'0 0.0
2017-Mar-20 09:33N 53°23' W 003°00'0 0.0
2017-Mar-20 08:33N 53°23' W 003°00'0 0.0
2017-Mar-20 07:30N 53°23' W 003°00'0 0.0
2017-Mar-20 06:33N 53°23' W 003°00'0 0.0
2017-Mar-20 05:30N 53°23' W 003°00'0 0.2
2017-Mar-20 04:32N 53°23' W 002°60'0 0.4
2017-Mar-20 03:33N 53°23' W 002°60'7 6.7
2017-Mar-20 02:33N 53°29' W 003°05'7 6.9
2017-Mar-20 01:33N 53°31' W 003°16'6 6.3
2017-Mar-20 00:33N 53°30' W 003°06'8 7.8
2017-Mar-19 23:32N 53°23' W 002°60'0 0.2
2017-Mar-19 22:31N 53°23' W 002°60'0 0.0
2017-Mar-19 21:31N 53°23' W 002°60'0 0.0
2017-Mar-19 20:31N 53°23' W 002°60'0 0.0
2017-Mar-19 19:31N 53°23' W 002°60'0 0.0
2017-Mar-19 18:31N 53°23' W 002°60'0 0.0
2017-Mar-19 17:28N 53°23' W 002°60'0 0.0
2017-Mar-19 16:31N 53°23' W 002°60'0 0.0
2017-Mar-19 15:25N 53°23' W 002°60'0 0.0
2017-Mar-19 14:31N 53°23' W 002°60'0 0.0
2017-Mar-19 13:33N 53°23' W 002°60'0 0.0
2017-Mar-19 12:33N 53°23' W 002°60'0 0.0
2017-Mar-19 11:33N 53°23' W 002°60'0 0.0
2017-Mar-19 10:30N 53°23' W 002°60'0 0.0
2017-Mar-19 09:33N 53°23' W 002°60'0 0.0
2017-Mar-19 08:33N 53°23' W 002°60'2 1.5
2017-Mar-19 07:34N 53°24' W 003°00'2 1.4
2017-Mar-19 06:30N 53°23' W 002°60'0 0.0
2017-Mar-19 05:33N 53°23' W 002°60'0 0.0
2017-Mar-19 04:33N 53°23' W 002°60'0 0.0
2017-Mar-19 03:33N 53°23' W 002°60'4 3.9
2017-Mar-19 02:32N 53°27' W 003°01'0 0.4
2017-Mar-19 01:32N 53°27' W 003°01'2 2.3
2017-Mar-19 00:33N 53°28' W 003°04'6 5.8
2017-Mar-18 23:28N 53°23' W 002°60'0 0.0
2017-Mar-18 22:31N 53°23' W 002°60'0 0.0
2017-Mar-18 21:31N 53°23' W 002°60'0 0.0
2017-Mar-18 20:31N 53°23' W 002°60'0 0.0
2017-Mar-18 19:31N 53°23' W 002°60'0 0.0
2017-Mar-18 18:31N 53°23' W 002°60'0 0.0
2017-Mar-18 17:31N 53°23' W 002°60'0 0.0
2017-Mar-18 16:31N 53°23' W 002°60'0 0.2
2017-Mar-18 15:32N 53°23' W 002°60'0 0.3
2017-Mar-18 14:32N 53°23' W 003°00'7 7.4
2017-Mar-18 13:33N 53°30' W 003°06'2 1.9
2017-Mar-18 12:33N 53°31' W 003°07'6 6.0
2017-Mar-18 11:31N 53°26' W 003°01'0 0.2
2017-Mar-18 10:33N 53°27' W 003°00'1 1.2
2017-Mar-18 09:33N 53°25' W 003°00'0 0.0
2017-Mar-18 08:33N 53°25' W 003°00'0 0.0
2017-Mar-18 07:33N 53°25' W 003°00'0 0.0
2017-Mar-18 06:33N 53°25' W 003°00'0 0.0
2017-Mar-18 05:33N 53°25' W 003°00'0 0.0
2017-Mar-18 04:33N 53°25' W 003°00'0 0.0
2017-Mar-18 03:30N 53°25' W 003°00'0 0.0
2017-Mar-18 02:33N 53°25' W 003°00'0 0.0
2017-Mar-18 01:33N 53°25' W 003°00'0 0.0
2017-Mar-18 00:32N 53°25' W 003°00'0 0.0
2017-Mar-17 23:32N 53°25' W 003°00'0 0.0
2017-Mar-17 22:32N 53°25' W 003°00'0 0.0
2017-Mar-17 21:32N 53°25' W 003°00'0 0.0
2017-Mar-17 20:32N 53°25' W 003°00'0 0.0
2017-Mar-17 19:32N 53°25' W 003°00'0 0.0
2017-Mar-17 18:32N 53°25' W 003°00'0 0.0
2017-Mar-17 17:32N 53°25' W 003°00'0 0.0
2017-Mar-17 16:32N 53°25' W 003°00'0 0.0
2017-Mar-17 15:32N 53°25' W 003°00'0 0.0
2017-Mar-17 14:32N 53°25' W 003°00'0 0.0
2017-Mar-17 13:32N 53°25' W 003°00'0 0.0
2017-Mar-17 12:32N 53°25' W 003°00'  
Track history (hours):
 
Tides and Currents Weather Stations Pressure Air Temp Water Temp Dewpoint Dewpoint Depression Visibility Wind Speed Wind Dir Waves Ship Positions

Svitzer Stanlow

Last reported at 2017-Mar-27 12:29 UTC. Time now 2017-Mar-27 12:44 UTC.
Position N 53°24' W 002°60'.

Length 39 m.

Type: Tug. MMSI: 235010620.

Date/timePositionNaut miles runAvg speedWind from/ knotsBaromVisibWave heightAir tempDewpointWater temp
2017-Mar-27 12:29N 53°24' W 002°60'2 1.9
2017-Mar-27 11:34N 53°26' W 003°01'6 5.5
2017-Mar-27 10:33N 53°31' W 003°06'8 8.5
2017-Mar-27 09:33N 53°23' W 002°60'1 1.3
2017-Mar-27 08:32N 53°24' W 002°60'0 0.0
2017-Mar-27 07:32N 53°24' W 002°60'0 0.0
2017-Mar-27 06:32N 53°24' W 002°60'0 0.0
2017-Mar-27 05:29N 53°24' W 002°60'0 0.0
2017-Mar-27 04:32N 53°24' W 002°60'0 0.0
2017-Mar-27 03:32N 53°24' W 002°60'0 0.0
2017-Mar-27 02:32N 53°24' W 002°60'0 0.0
2017-Mar-27 01:32N 53°24' W 002°60'0 0.0
2017-Mar-27 00:32N 53°24' W 002°60'0 0.0
2017-Mar-26 23:29N 53°24' W 002°60'0 0.0
2017-Mar-26 22:32N 53°24' W 002°60'0 0.0
2017-Mar-26 21:32N 53°24' W 002°60'0 0.0
2017-Mar-26 20:29N 53°24' W 002°60'0 0.0
2017-Mar-26 19:32N 53°24' W 002°60'0 0.0
2017-Mar-26 18:32N 53°24' W 002°60'0 0.0
2017-Mar-26 17:28N 53°24' W 002°60'0 0.0
2017-Mar-26 16:31N 53°24' W 002°60'0 0.0
2017-Mar-26 15:25N 53°24' W 002°60'0 0.0
2017-Mar-26 14:31N 53°24' W 002°60'0 0.0
2017-Mar-26 13:31N 53°24' W 002°60'0 0.0
2017-Mar-26 12:31N 53°24' W 002°60'1 1.4
2017-Mar-26 11:30N 53°23' W 003°00'2 1.6
2017-Mar-26 10:33N 53°24' W 003°01'6 6.3
2017-Mar-26 09:33N 53°30' W 003°06'8 7.8
2017-Mar-26 08:34N 53°31' W 003°18'2 1.7
2017-Mar-26 07:33N 53°31' W 003°16'9 9.1
2017-Mar-26 06:33N 53°27' W 003°02'5 4.3
2017-Mar-26 05:29N 53°23' W 002°60'0 0.2
2017-Mar-26 04:32N 53°23' W 003°00'0 0.0
2017-Mar-26 03:32N 53°23' W 003°00'0 0.0
2017-Mar-26 02:29N 53°23' W 003°00'0 0.0
2017-Mar-26 01:29N 53°23' W 003°00'0 0.0
2017-Mar-26 00:32N 53°23' W 003°00'0 0.0
2017-Mar-25 23:32N 53°23' W 003°00'0 0.0
2017-Mar-25 22:23N 53°23' W 003°00'0 0.0
2017-Mar-25 21:32N 53°23' W 003°00'0 0.1
2017-Mar-25 20:34N 53°23' W 002°60'0 0.1
2017-Mar-25 19:33N 53°23' W 002°60'0 0.0
2017-Mar-25 18:33N 53°23' W 002°60'0 0.0
2017-Mar-25 17:33N 53°23' W 002°60'0 0.0
2017-Mar-25 16:33N 53°23' W 002°60'0 0.0
2017-Mar-25 15:33N 53°23' W 002°60'0 0.0
2017-Mar-25 14:33N 53°23' W 002°60'0 0.0
2017-Mar-25 13:24N 53°23' W 002°60'0 0.0
2017-Mar-25 12:33N 53°23' W 002°60'0 0.0
2017-Mar-25 11:33N 53°23' W 002°60'0 0.0
2017-Mar-25 10:30N 53°23' W 002°60'0 0.2
2017-Mar-25 09:33N 53°23' W 002°60'1 1.4
2017-Mar-25 08:27N 53°24' W 002°60'0 0.0
2017-Mar-25 07:33N 53°24' W 002°60'0 0.0
2017-Mar-25 06:33N 53°24' W 002°60'0 0.0
2017-Mar-25 05:33N 53°24' W 002°60'0 0.0
2017-Mar-25 04:33N 53°24' W 002°60'0 0.0
2017-Mar-25 03:33N 53°24' W 002°60'0 0.0
2017-Mar-25 02:33N 53°24' W 002°60'0 0.0
2017-Mar-25 01:33N 53°24' W 002°60'0 0.0
2017-Mar-25 00:30N 53°24' W 002°60'0 0.0
2017-Mar-24 23:33N 53°24' W 002°60'0 0.0
2017-Mar-24 22:33N 53°24' W 002°60'1 1.4
2017-Mar-24 21:32N 53°23' W 003°00'2 2.1
2017-Mar-24 20:33N 53°25' W 003°01'8 7.9
2017-Mar-24 19:33N 53°32' W 003°08'2 2.0
2017-Mar-24 18:33N 53°32' W 003°11'9 9.2
2017-Mar-24 17:33N 53°25' W 003°01'2 1.9
2017-Mar-24 16:28N 53°23' W 003°00'0 0.0
2017-Mar-24 15:31N 53°23' W 003°00'0 0.0
2017-Mar-24 14:28N 53°23' W 003°00'0 0.0
2017-Mar-24 13:31N 53°23' W 003°00'0 0.0
2017-Mar-24 12:31N 53°23' W 003°00'0 0.0
2017-Mar-24 11:31N 53°23' W 003°00'0 0.0
2017-Mar-24 10:31N 53°23' W 003°00'0 0.0
2017-Mar-24 09:31N 53°23' W 003°00'0 0.0
2017-Mar-24 08:28N 53°23' W 003°00'0 0.0
2017-Mar-24 07:31N 53°23' W 003°00'0 0.0
2017-Mar-24 06:33N 53°23' W 003°00'0 0.0
2017-Mar-24 05:33N 53°23' W 003°00'0 0.0
2017-Mar-24 04:33N 53°23' W 003°00'0 0.0
2017-Mar-24 03:33N 53°23' W 003°00'0 0.0
2017-Mar-24 02:33N 53°23' W 003°00'0 0.0
2017-Mar-24 01:33N 53°23' W 003°00'0 0.0
2017-Mar-24 00:33N 53°23' W 003°00'0 0.0
2017-Mar-23 23:33N 53°23' W 003°00'0 0.0
2017-Mar-23 22:33N 53°23' W 003°00'0 0.0
2017-Mar-23 21:33N 53°23' W 003°00'0 0.2
2017-Mar-23 20:32N 53°23' W 002°60'2 1.8
2017-Mar-23 19:33N 53°24' W 003°01'0 0.3
2017-Mar-23 18:32N 53°24' W 002°60'3 2.9
2017-Mar-23 17:31N 53°27' W 003°01'2 1.8
2017-Mar-23 16:33N 53°25' W 003°00'0 0.0
2017-Mar-23 15:30N 53°25' W 003°00'0 0.0
2017-Mar-23 14:33N 53°25' W 003°00'0 0.0
2017-Mar-23 13:33N 53°25' W 003°00'0 0.0
2017-Mar-23 12:33N 53°25' W 003°00'0 0.0
2017-Mar-23 11:33N 53°25' W 003°00'0 0.0
2017-Mar-23 10:30N 53°25' W 003°00'0 0.0
2017-Mar-23 09:33N 53°25' W 003°00'0 0.2
2017-Mar-23 08:33N 53°26' W 003°00'1 1.4
2017-Mar-23 07:33N 53°27' W 003°01'0 0.0
2017-Mar-23 06:33N 53°27' W 003°01'0 0.2
2017-Mar-23 05:33N 53°27' W 003°01'1 0.7
2017-Mar-23 04:32N 53°27' W 003°00'1 0.5
2017-Mar-23 03:32N 53°26' W 003°00'2 1.5
2017-Mar-23 02:32N 53°27' W 003°01'1 0.7
2017-Mar-23 01:30N 53°27' W 003°01'1 1.4
2017-Mar-23 00:28N 53°25' W 003°00'0 0.0
2017-Mar-22 23:28N 53°25' W 003°00'0 0.0
2017-Mar-22 22:31N 53°25' W 003°00'0 0.0
2017-Mar-22 21:31N 53°25' W 003°00'0 0.0
2017-Mar-22 20:31N 53°25' W 003°00'0 0.0
2017-Mar-22 19:31N 53°25' W 003°00'0 0.0
2017-Mar-22 18:31N 53°25' W 003°00'0 0.0
2017-Mar-22 17:31N 53°25' W 003°00'0 0.0
2017-Mar-22 16:28N 53°25' W 003°00'0 0.0
2017-Mar-22 15:28N 53°25' W 003°00'0 0.0
2017-Mar-22 14:25N 53°25' W 003°00'0 0.0
2017-Mar-22 13:31N 53°25' W 003°00'0 0.0
2017-Mar-22 12:28N 53°25' W 003°00'0 0.0
2017-Mar-22 11:31N 53°25' W 003°00'0 0.0
2017-Mar-22 10:31N 53°25' W 003°00'0 0.0
2017-Mar-22 09:25N 53°25' W 003°00'0 0.0
2017-Mar-22 08:28N 53°25' W 003°00'0 0.0
2017-Mar-22 07:28N 53°25' W 003°00'0 0.0
2017-Mar-22 06:31N 53°25' W 003°00'0 0.0
2017-Mar-22 05:31N 53°25' W 003°00'0 0.0
2017-Mar-22 04:34N 53°25' W 003°00'0 0.0
2017-Mar-22 03:34N 53°25' W 003°00'0 0.0
2017-Mar-22 02:33N 53°25' W 003°00'0 0.0
2017-Mar-22 01:33N 53°25' W 003°00'0 0.0
2017-Mar-22 00:33N 53°25' W 003°00'0 0.0
2017-Mar-21 23:33N 53°25' W 003°00'0 0.0
2017-Mar-21 22:33N 53°25' W 003°00'0 0.0
2017-Mar-21 21:33N 53°25' W 003°00'0 0.0
2017-Mar-21 20:33N 53°25' W 003°00'0 0.0
2017-Mar-21 19:33N 53°25' W 003°00'0 0.0
2017-Mar-21 18:33N 53°25' W 003°00'2 1.9
2017-Mar-21 17:32N 53°27' W 003°01'0 0.3
2017-Mar-21 16:31N 53°27' W 003°02'0 0.3
2017-Mar-21 15:33N 53°27' W 003°01'1 0.7
2017-Mar-21 14:32N 53°27' W 003°01'0 0.2
2017-Mar-21 13:33N 53°27' W 003°01'4 4.1
2017-Mar-21 12:33N 53°23' W 002°60'0 0.2
2017-Mar-21 11:31N 53°23' W 003°00'0 0.0
2017-Mar-21 10:31N 53°23' W 003°00'0 0.0
2017-Mar-21 09:31N 53°23' W 003°00'0 0.0
2017-Mar-21 08:31N 53°23' W 003°00'0 0.0
2017-Mar-21 07:31N 53°23' W 003°00'0 0.0
2017-Mar-21 06:34N 53°23' W 003°00'0 0.0
2017-Mar-21 05:33N 53°23' W 003°00'0 0.0
2017-Mar-21 04:33N 53°23' W 003°00'0 0.0
2017-Mar-21 03:33N 53°23' W 003°00'0 0.0
2017-Mar-21 02:33N 53°23' W 003°00'0 0.0
2017-Mar-21 01:30N 53°23' W 003°00'0 0.0
2017-Mar-21 00:33N 53°23' W 003°00'0 0.0
2017-Mar-20 23:24N 53°23' W 003°00'0 0.0
2017-Mar-20 22:33N 53°23' W 003°00'0 0.0
2017-Mar-20 21:33N 53°23' W 003°00'0 0.0
2017-Mar-20 20:33N 53°23' W 003°00'0 0.0
2017-Mar-20 19:33N 53°23' W 003°00'0 0.0
2017-Mar-20 18:18N 53°23' W 003°00'0 0.0
2017-Mar-20 17:30N 53°23' W 003°00'0 0.0
2017-Mar-20 16:30N 53°23' W 003°00'0 0.0
2017-Mar-20 15:33N 53°23' W 003°00'0 0.0
2017-Mar-20 14:33N 53°23' W 003°00'0 0.0
2017-Mar-20 13:33N 53°23' W 003°00'0 0.0
2017-Mar-20 12:33N 53°23' W 003°00'0 0.0
2017-Mar-20 11:33N 53°23' W 003°00'0 0.0
2017-Mar-20 10:27N 53°23' W 003°00'0 0.0
2017-Mar-20 09:33N 53°23' W 003°00'0 0.0
2017-Mar-20 08:33N 53°23' W 003°00'0 0.0
2017-Mar-20 07:30N 53°23' W 003°00'0 0.0
2017-Mar-20 06:33N 53°23' W 003°00'0 0.0
2017-Mar-20 05:30N 53°23' W 003°00'0 0.2
2017-Mar-20 04:32N 53°23' W 002°60'0 0.4
2017-Mar-20 03:33N 53°23' W 002°60'7 6.7
2017-Mar-20 02:33N 53°29' W 003°05'7 6.9
2017-Mar-20 01:33N 53°31' W 003°16'6 6.3
2017-Mar-20 00:33N 53°30' W 003°06'8 7.8
2017-Mar-19 23:32N 53°23' W 002°60'0 0.2
2017-Mar-19 22:31N 53°23' W 002°60'0 0.0
2017-Mar-19 21:31N 53°23' W 002°60'0 0.0
2017-Mar-19 20:31N 53°23' W 002°60'0 0.0
2017-Mar-19 19:31N 53°23' W 002°60'0 0.0
2017-Mar-19 18:31N 53°23' W 002°60'0 0.0
2017-Mar-19 17:28N 53°23' W 002°60'0 0.0
2017-Mar-19 16:31N 53°23' W 002°60'0 0.0
2017-Mar-19 15:25N 53°23' W 002°60'0 0.0
2017-Mar-19 14:31N 53°23' W 002°60'0 0.0
2017-Mar-19 13:33N 53°23' W 002°60'0 0.0
2017-Mar-19 12:33N 53°23' W 002°60'0 0.0
2017-Mar-19 11:33N 53°23' W 002°60'0 0.0
2017-Mar-19 10:30N 53°23' W 002°60'0 0.0
2017-Mar-19 09:33N 53°23' W 002°60'0 0.0
2017-Mar-19 08:33N 53°23' W 002°60'2 1.5
2017-Mar-19 07:34N 53°24' W 003°00'2 1.4
2017-Mar-19 06:30N 53°23' W 002°60'0 0.0
2017-Mar-19 05:33N 53°23' W 002°60'0 0.0
2017-Mar-19 04:33N 53°23' W 002°60'0 0.0
2017-Mar-19 03:33N 53°23' W 002°60'4 3.9
2017-Mar-19 02:32N 53°27' W 003°01'0 0.4
2017-Mar-19 01:32N 53°27' W 003°01'2 2.3
2017-Mar-19 00:33N 53°28' W 003°04'6 5.8
2017-Mar-18 23:28N 53°23' W 002°60'0 0.0
2017-Mar-18 22:31N 53°23' W 002°60'0 0.0
2017-Mar-18 21:31N 53°23' W 002°60'0 0.0
2017-Mar-18 20:31N 53°23' W 002°60'0 0.0
2017-Mar-18 19:31N 53°23' W 002°60'0 0.0
2017-Mar-18 18:31N 53°23' W 002°60'0 0.0
2017-Mar-18 17:31N 53°23' W 002°60'0 0.0
2017-Mar-18 16:31N 53°23' W 002°60'0 0.2
2017-Mar-18 15:32N 53°23' W 002°60'0 0.3
2017-Mar-18 14:32N 53°23' W 003°00'7 7.4
2017-Mar-18 13:33N 53°30' W 003°06'2 1.9
2017-Mar-18 12:33N 53°31' W 003°07'6 6.0
2017-Mar-18 11:31N 53°26' W 003°01'0 0.2
2017-Mar-18 10:33N 53°27' W 003°00'1 1.2
2017-Mar-18 09:33N 53°25' W 003°00'0 0.0
2017-Mar-18 08:33N 53°25' W 003°00'0 0.0
2017-Mar-18 07:33N 53°25' W 003°00'0 0.0
2017-Mar-18 06:33N 53°25' W 003°00'0 0.0
2017-Mar-18 05:33N 53°25' W 003°00'0 0.0
2017-Mar-18 04:33N 53°25' W 003°00'0 0.0
2017-Mar-18 03:30N 53°25' W 003°00'0 0.0
2017-Mar-18 02:33N 53°25' W 003°00'0 0.0
2017-Mar-18 01:33N 53°25' W 003°00'0 0.0
2017-Mar-18 00:32N 53°25' W 003°00'0 0.0
2017-Mar-17 23:32N 53°25' W 003°00'0 0.0
2017-Mar-17 22:32N 53°25' W 003°00'0 0.0
2017-Mar-17 21:32N 53°25' W 003°00'0 0.0
2017-Mar-17 20:32N 53°25' W 003°00'0 0.0
2017-Mar-17 19:32N 53°25' W 003°00'0 0.0
2017-Mar-17 18:32N 53°25' W 003°00'0 0.0
2017-Mar-17 17:32N 53°25' W 003°00'0 0.0
2017-Mar-17 16:32N 53°25' W 003°00'0 0.0
2017-Mar-17 15:32N 53°25' W 003°00'0 0.0
2017-Mar-17 14:32N 53°25' W 003°00'0 0.0
2017-Mar-17 13:32N 53°25' W 003°00'0 0.0
2017-Mar-17 12:32N 53°25' W 003°00'  

Dump ship's entire track history